Time;durP1;ratioP1;P1;durP2;ratioP2;P2;SDS_P1;SDS_P2;PMS_P1;PMS_P2;Temp;Humidity;BMP_temperature;BMP_pressure;BME280_temperature;BME280_humidity;BME280_pressure;Samples;Min_cycle;Max_cycle;Signal;HPM_P1;HPM_P2
2023/12/02 00:00:43;;;;;;;63.73;30.83;;;;;;;-2.34;76.33;99497.69;5121195;27;20227;-63
2023/12/02 00:03:11;;;;;;;65.27;32.90;;;;;;;-2.39;76.53;99495.81;5099600;27;20722;-62
2023/12/02 00:05:39;;;;;;;69.70;32.23;;;;;;;-2.46;76.18;99493.13;5124809;27;20202;-63
2023/12/02 00:08:07;;;;;;;65.10;31.47;;;;;;;-2.43;77.30;99497.38;5118264;27;20203;-62
2023/12/02 00:10:35;;;;;;;64.00;31.60;;;;;;;-2.39;76.88;99485.72;5109682;27;20698;-63
2023/12/02 00:13:02;;;;;;;68.23;31.70;;;;;;;-2.36;77.45;99478.25;5119888;27;20200;-62
2023/12/02 00:15:30;;;;;;;68.67;32.53;;;;;;;-2.30;76.92;99478.47;5120039;27;20257;-61
2023/12/02 00:18:00;;;;;;;68.87;33.17;;;;;;;-2.29;76.75;99470.06;5118869;27;20227;-62
2023/12/02 00:20:28;;;;;;;62.77;29.63;;;;;;;-2.31;76.67;99476.75;5105445;28;20208;-62
2023/12/02 00:22:56;;;;;;;63.90;31.87;;;;;;;-2.34;76.62;99482.56;5113349;27;20293;-62
2023/12/02 00:25:23;;;;;;;69.47;33.03;;;;;;;-2.35;76.98;99490.09;5117108;27;20207;-63
2023/12/02 00:27:51;;;;;;;65.80;31.17;;;;;;;-2.39;76.55;99488.25;5101862;28;20196;-63
2023/12/02 00:30:20;;;;;;;70.50;29.80;;;;;;;-2.44;76.43;99496.53;5115581;27;20218;-61
2023/12/02 00:32:47;;;;;;;70.77;32.50;;;;;;;-2.44;76.02;99499.06;5120686;27;20231;-63
2023/12/02 00:35:17;;;;;;;64.10;31.77;;;;;;;-2.45;76.24;99492.31;5113124;27;20239;-62
2023/12/02 00:37:45;;;;;;;57.50;29.67;;;;;;;-2.47;76.37;99486.38;5105202;27;20230;-64
2023/12/02 00:40:12;;;;;;;72.30;32.50;;;;;;;-2.48;76.45;99496.41;5103267;27;20201;-63
2023/12/02 00:42:40;;;;;;;69.23;31.93;;;;;;;-2.51;76.43;99503.84;5112510;28;20280;-62
2023/12/02 00:45:09;;;;;;;72.90;32.83;;;;;;;-2.53;76.97;99496.25;5110154;27;20200;-63
2023/12/02 00:47:37;;;;;;;72.50;33.10;;;;;;;-2.52;76.81;99494.59;5105386;28;20208;-62
2023/12/02 00:50:06;;;;;;;62.67;30.63;;;;;;;-2.49;76.67;99497.22;5119493;27;20196;-62
2023/12/02 00:52:36;;;;;;;68.87;33.37;;;;;;;-2.53;76.64;99497.94;5105221;28;20609;-64
2023/12/02 00:55:04;;;;;;;71.10;33.00;;;;;;;-2.58;76.74;99499.44;5115985;27;20543;-62
2023/12/02 00:57:32;;;;;;;68.77;32.90;;;;;;;-2.60;76.67;99504.44;5118148;27;20289;-61
2023/12/02 01:00:00;;;;;;;67.63;32.93;;;;;;;-2.59;76.51;99491.00;5113831;27;20204;-62
2023/12/02 01:02:28;;;;;;;68.40;32.60;;;;;;;-2.54;76.79;99494.56;5113999;27;20196;-65
2023/12/02 01:04:56;;;;;;;64.13;32.47;;;;;;;-2.51;76.63;99493.78;5117507;27;20717;-63
2023/12/02 01:07:24;;;;;;;70.67;32.30;;;;;;;-2.47;77.47;99490.53;5113165;28;20533;-62
2023/12/02 01:09:53;;;;;;;66.93;33.03;;;;;;;-2.43;77.18;99487.28;5117070;27;20256;-61
2023/12/02 01:12:21;;;;;;;74.10;35.63;;;;;;;-2.49;76.71;99482.09;5113527;27;20295;-63
2023/12/02 01:14:49;;;;;;;81.27;35.23;;;;;;;-2.57;77.80;99471.75;5124191;27;20209;-62
2023/12/02 01:17:18;;;;;;;75.30;35.23;;;;;;;-2.57;78.40;99479.31;5116944;27;20251;-61
2023/12/02 01:19:46;;;;;;;74.77;34.43;;;;;;;-2.51;78.32;99469.41;5106358;28;20672;-63
2023/12/02 01:22:14;;;;;;;76.63;34.60;;;;;;;-2.42;78.00;99457.91;5112984;28;20580;-62
2023/12/02 01:24:42;;;;;;;73.53;34.37;;;;;;;-2.40;78.23;99456.28;5115847;27;20208;-61
2023/12/02 01:27:11;;;;;;;70.80;34.00;;;;;;;-2.39;77.90;99452.94;5113553;27;20197;-62
2023/12/02 01:29:39;;;;;;;79.67;35.13;;;;;;;-2.47;78.54;99451.06;5119282;27;20633;-61
2023/12/02 01:32:07;;;;;;;79.30;35.13;;;;;;;-2.61;78.51;99451.44;5114037;27;20805;-63
2023/12/02 01:34:35;;;;;;;85.93;35.73;;;;;;;-2.75;78.44;99459.41;5114530;27;20663;-62
2023/12/02 01:37:03;;;;;;;67.50;30.07;;;;;;;-2.89;79.78;99445.50;5113683;27;20241;-62
2023/12/02 01:39:30;;;;;;;65.83;29.40;;;;;;;-2.92;80.33;99446.25;5101940;27;20637;-61
2023/12/02 01:41:58;;;;;;;67.33;30.30;;;;;;;-2.89;80.55;99445.50;5110573;27;20210;-62
2023/12/02 01:44:28;;;;;;;71.20;31.17;;;;;;;-2.84;80.64;99448.16;5108911;27;20200;-62
2023/12/02 01:46:56;;;;;;;73.03;31.03;;;;;;;-2.76;80.43;99444.22;5109084;28;20245;-61
2023/12/02 01:49:25;;;;;;;76.33;33.40;;;;;;;-2.72;80.83;99441.00;5107832;27;20219;-63
2023/12/02 01:51:53;;;;;;;72.23;31.20;;;;;;;-2.72;80.58;99459.50;5116666;27;20299;-63
2023/12/02 01:54:21;;;;;;;70.57;32.17;;;;;;;-2.72;80.13;99473.78;5105626;27;20200;-61
2023/12/02 01:56:49;;;;;;;60.57;28.70;;;;;;;-2.81;79.80;99479.38;5096052;27;20257;-62
2023/12/02 01:59:19;;;;;;;63.40;26.50;;;;;;;-2.96;80.56;99484.78;5105557;28;20663;-62
2023/12/02 02:01:48;;;;;;;81.60;33.70;;;;;;;-3.02;80.47;99481.19;5109938;28;20204;-62
2023/12/02 02:04:16;;;;;;;73.53;32.57;;;;;;;-3.05;81.59;99488.66;5108496;27;20228;-62
2023/12/02 02:06:45;;;;;;;69.33;29.90;;;;;;;-3.06;81.56;99491.97;5112888;27;20697;-63
2023/12/02 02:09:13;;;;;;;68.73;30.10;;;;;;;-3.06;81.51;99485.25;5119056;27;20743;-63
2023/12/02 02:11:41;;;;;;;71.07;29.53;;;;;;;-3.05;81.35;99492.03;5112098;27;20703;-68
2023/12/02 02:14:09;;;;;;;64.00;28.17;;;;;;;-3.06;81.48;99492.81;5106284;27;20206;-63
2023/12/02 02:16:36;;;;;;;66.10;29.40;;;;;;;-3.05;81.66;99489.53;5123361;27;20231;-62
2023/12/02 02:19:08;;;;;;;62.30;28.27;;;;;;;-3.00;81.81;99489.66;5112108;27;20422;-61
2023/12/02 02:21:37;;;;;;;61.60;28.57;;;;;;;-2.97;81.61;99488.09;5105979;28;20192;-61
2023/12/02 02:24:06;;;;;;;61.23;28.13;;;;;;;-2.88;81.50;99487.53;5117636;27;20200;-62
2023/12/02 02:26:34;;;;;;;60.60;27.07;;;;;;;-2.77;81.69;99480.34;5117208;27;20252;-65
2023/12/02 02:29:02;;;;;;;60.13;27.37;;;;;;;-2.63;81.48;99480.78;5111691;28;20200;-67
2023/12/02 02:31:30;;;;;;;62.60;27.03;;;;;;;-2.59;80.78;99475.88;5112616;27;20199;-61
2023/12/02 02:33:58;;;;;;;66.27;30.50;;;;;;;-2.53;80.73;99470.19;5113741;27;20654;-66
2023/12/02 02:36:25;;;;;;;67.53;28.43;;;;;;;-2.44;80.74;99466.25;5112821;27;20200;-63
2023/12/02 02:38:55;;;;;;;59.07;26.30;;;;;;;-2.35;80.18;99473.28;5103916;28;20731;-62
2023/12/02 02:41:22;;;;;;;62.37;26.73;;;;;;;-2.28;79.76;99472.66;5110194;28;20200;-60
2023/12/02 02:43:50;;;;;;;59.77;27.23;;;;;;;-2.26;79.28;99485.31;5105815;28;20211;-61
2023/12/02 02:46:18;;;;;;;59.63;25.10;;;;;;;-2.23;79.34;99485.41;5118690;27;20209;-61
2023/12/02 02:48:46;;;;;;;58.87;24.77;;;;;;;-2.20;79.27;99495.59;5098940;28;20204;-62
2023/12/02 02:51:14;;;;;;;54.93;24.77;;;;;;;-2.18;79.01;99504.06;5099776;27;20200;-62
2023/12/02 02:53:42;;;;;;;49.33;23.97;;;;;;;-2.22;79.03;99499.72;5111731;28;20323;-63
2023/12/02 02:56:12;;;;;;;52.97;25.77;;;;;;;-2.20;78.87;99510.75;5111978;27;20650;-61
2023/12/02 02:58:40;;;;;;;59.37;25.17;;;;;;;-2.24;78.54;99514.84;5107747;28;20207;-62
2023/12/02 03:01:08;;;;;;;56.97;25.20;;;;;;;-2.22;79.02;99512.34;5112539;28;20676;-61
2023/12/02 03:03:35;;;;;;;56.23;24.10;;;;;;;-2.20;78.88;99500.66;5112394;28;20203;-62
2023/12/02 03:06:04;;;;;;;57.97;26.43;;;;;;;-2.23;78.71;99495.50;5111342;28;20921;-62
2023/12/02 03:08:32;;;;;;;60.53;26.13;;;;;;;-2.24;78.81;99498.84;5112294;28;20206;-62
2023/12/02 03:11:00;;;;;;;65.00;27.07;;;;;;;-2.28;78.86;99497.88;5112107;28;20200;-61
2023/12/02 03:13:29;;;;;;;64.37;26.73;;;;;;;-2.31;78.89;99501.97;5112607;27;20273;-61
2023/12/02 03:15:57;;;;;;;64.13;25.77;;;;;;;-2.33;78.92;99501.91;5104584;27;20200;-62
2023/12/02 03:18:25;;;;;;;56.27;25.93;;;;;;;-2.38;79.28;99497.56;5123603;27;20638;-63
2023/12/02 03:20:53;;;;;;;56.60;25.20;;;;;;;-2.41;78.88;99495.78;5104745;27;20517;-61
2023/12/02 03:23:21;;;;;;;61.53;26.47;;;;;;;-2.48;79.40;99486.31;5113931;27;20249;-61
2023/12/02 03:25:49;;;;;;;59.70;25.00;;;;;;;-2.49;79.88;99472.84;5121450;27;20203;-62
2023/12/02 03:28:17;;;;;;;61.07;25.80;;;;;;;-2.48;80.19;99461.09;5121558;27;20196;-63
2023/12/02 03:30:46;;;;;;;57.30;25.77;;;;;;;-2.44;79.69;99461.22;5115232;27;20200;-62
2023/12/02 03:33:14;;;;;;;68.30;26.17;;;;;;;-2.49;79.50;99456.84;5120549;27;20215;-64
2023/12/02 03:35:42;;;;;;;63.80;28.43;;;;;;;-2.67;79.37;99447.91;5115027;28;20216;-62
2023/12/02 03:38:10;;;;;;;63.23;26.70;;;;;;;-2.79;79.95;99447.53;5112836;27;20273;-62
2023/12/02 03:40:38;;;;;;;69.10;28.10;;;;;;;-2.86;81.00;99457.34;5114107;27;20572;-62
2023/12/02 03:43:06;;;;;;;59.23;26.17;;;;;;;-2.96;80.88;99457.03;5114208;27;20646;-61
2023/12/02 03:45:33;;;;;;;67.80;26.10;;;;;;;-3.03;81.35;99451.75;5123366;27;20210;-63
2023/12/02 03:48:03;;;;;;;68.17;25.80;;;;;;;-3.09;82.15;99449.03;5112957;27;20204;-61
2023/12/02 03:50:31;;;;;;;63.27;26.73;;;;;;;-3.06;82.26;99444.09;5114251;27;20253;-63
2023/12/02 03:53:00;;;;;;;56.73;24.77;;;;;;;-2.99;82.12;99448.53;5112785;27;20716;-65
2023/12/02 03:55:30;;;;;;;56.10;26.27;;;;;;;-2.97;81.84;99447.78;5105071;27;20193;-63
2023/12/02 03:57:59;;;;;;;66.13;26.50;;;;;;;-3.02;81.72;99449.31;5112349;27;20206;-63
2023/12/02 04:00:27;;;;;;;65.67;27.17;;;;;;;-3.05;81.78;99463.47;5113873;27;20196;-62
2023/12/02 04:02:55;;;;;;;65.57;26.57;;;;;;;-3.10;82.13;99462.44;5118681;27;20192;-64
2023/12/02 04:05:24;;;;;;;65.27;26.50;;;;;;;-3.17;82.06;99469.81;5114732;28;20637;-63
2023/12/02 04:07:52;;;;;;;58.77;24.97;;;;;;;-3.26;82.11;99464.44;5112419;28;20204;-64
2023/12/02 04:10:20;;;;;;;54.73;23.83;;;;;;;-3.32;82.33;99470.94;5108073;27;20199;-64
2023/12/02 04:12:48;;;;;;;56.20;24.03;;;;;;;-3.39;82.73;99462.28;5115928;27;20767;-62
2023/12/02 04:15:16;;;;;;;51.60;21.73;;;;;;;-3.42;82.67;99473.16;5117184;27;20572;-63
2023/12/02 04:17:44;;;;;;;49.27;20.53;;;;;;;-3.44;83.74;99474.72;5115391;27;20249;-63
2023/12/02 04:20:15;;;;;;;46.63;20.23;;;;;;;-3.48;83.78;99464.50;5120099;27;20203;-63
2023/12/02 04:22:44;;;;;;;41.17;18.73;;;;;;;-3.46;83.76;99472.97;5118884;27;20582;-62
2023/12/02 04:25:12;;;;;;;46.47;18.70;;;;;;;-3.48;83.75;99472.06;5117415;27;20203;-62
2023/12/02 04:27:41;;;;;;;48.00;19.17;;;;;;;-3.53;84.39;99466.88;5115129;27;20290;-64
2023/12/02 04:30:09;;;;;;;53.93;20.30;;;;;;;-3.55;84.28;99470.97;5120329;27;20249;-62
2023/12/02 04:32:37;;;;;;;47.10;20.03;;;;;;;-3.53;84.68;99469.41;5118742;27;20207;-63
2023/12/02 04:35:06;;;;;;;45.20;19.77;;;;;;;-3.52;84.92;99473.63;5116495;27;20204;-64
2023/12/02 04:37:34;;;;;;;45.20;21.40;;;;;;;-3.45;84.39;99477.22;5114206;28;20207;-63
2023/12/02 04:40:10;;;;;;;46.43;19.97;;;;;;;-3.34;84.46;99480.97;5107199;28;20204;-63
2023/12/02 04:42:40;;;;;;;46.67;18.83;;;;;;;-3.15;84.15;99484.97;5117034;27;20199;-63
2023/12/02 04:45:09;;;;;;;42.30;17.67;;;;;;;-3.04;84.27;99483.66;5114640;27;20208;-62
2023/12/02 04:47:37;;;;;;;47.43;18.27;;;;;;;-2.88;83.60;99486.69;5115637;27;20210;-64
2023/12/02 04:50:05;;;;;;;46.30;18.93;;;;;;;-2.75;83.29;99471.16;5103985;28;20205;-63
2023/12/02 04:52:33;;;;;;;44.30;19.57;;;;;;;-2.69;82.68;99464.66;5114793;27;20226;-62
2023/12/02 04:55:03;;;;;;;50.07;21.77;;;;;;;-2.62;81.88;99462.31;5122913;27;20196;-67
2023/12/02 04:57:31;;;;;;;49.57;20.27;;;;;;;-2.69;81.50;99468.81;5117067;27;20210;-60
2023/12/02 04:59:59;;;;;;;46.13;20.73;;;;;;;-2.78;81.57;99471.06;5116151;27;20230;-62
2023/12/02 05:02:27;;;;;;;44.50;20.13;;;;;;;-2.88;81.25;99466.53;5111861;27;20203;-63
2023/12/02 05:04:55;;;;;;;48.53;19.90;;;;;;;-2.96;82.25;99449.47;5121180;27;20196;-62
2023/12/02 05:07:23;;;;;;;49.80;20.13;;;;;;;-3.00;82.37;99465.31;5113548;28;20739;-66
2023/12/02 05:09:51;;;;;;;51.63;20.97;;;;;;;-3.09;82.50;99454.94;5121432;27;20211;-61
2023/12/02 05:12:21;;;;;;;47.27;21.73;;;;;;;-3.19;82.77;99461.31;5108890;27;20207;-60
2023/12/02 05:14:48;;;;;;;55.47;21.13;;;;;;;-3.28;82.48;99455.09;5119981;27;20272;-61
2023/12/02 05:17:16;;;;;;;54.03;21.77;;;;;;;-3.32;83.67;99453.28;5114659;27;20239;-62
2023/12/02 05:19:44;;;;;;;51.30;20.87;;;;;;;-3.32;83.74;99458.34;5111574;28;20265;-63
2023/12/02 05:22:12;;;;;;;46.40;18.77;;;;;;;-3.28;83.93;99460.16;5118479;27;20662;-64
2023/12/02 05:24:40;;;;;;;48.00;20.23;;;;;;;-3.28;83.63;99462.66;5104838;27;20689;-63
2023/12/02 05:27:08;;;;;;;44.70;18.43;;;;;;;-3.24;83.78;99472.03;5112942;28;20678;-63
2023/12/02 05:29:37;;;;;;;32.13;14.70;;;;;;;-3.20;83.98;99468.84;5115285;27;20199;-62
2023/12/02 05:32:06;;;;;;;38.10;16.73;;;;;;;-3.24;83.07;99455.28;5115981;27;20386;-63
2023/12/02 05:34:34;;;;;;;32.03;14.57;;;;;;;-3.27;82.94;99451.81;5120090;27;20698;-62
2023/12/02 05:37:02;;;;;;;34.90;15.27;;;;;;;-3.33;83.62;99444.88;5112060;28;20200;-65
2023/12/02 05:39:29;;;;;;;34.60;14.53;;;;;;;-3.36;82.82;99443.91;5109027;27;20196;-64
2023/12/02 05:41:57;;;;;;;35.37;15.27;;;;;;;-3.36;83.55;99447.28;5114507;27;20253;-62
2023/12/02 05:44:25;;;;;;;38.60;16.13;;;;;;;-3.26;83.92;99449.31;5115624;27;20208;-62
2023/12/02 05:46:54;;;;;;;43.60;18.00;;;;;;;-3.20;83.01;99443.66;5117587;27;20570;-62
2023/12/02 05:49:22;;;;;;;39.13;15.47;;;;;;;-3.17;83.40;99447.13;5101104;27;20207;-61
2023/12/02 05:51:50;;;;;;;33.13;15.23;;;;;;;-3.14;83.24;99448.88;5114499;27;20731;-61
2023/12/02 05:54:18;;;;;;;40.07;15.57;;;;;;;-3.11;82.89;99454.03;5128647;27;20982;-63
2023/12/02 05:56:46;;;;;;;39.60;17.57;;;;;;;-3.04;82.71;99445.00;5117165;27;20203;-64
2023/12/02 05:59:16;;;;;;;37.43;16.93;;;;;;;-3.00;82.94;99446.81;5126962;27;20210;-61
2023/12/02 06:01:43;;;;;;;37.93;17.33;;;;;;;-3.01;82.19;99442.59;5110765;27;20200;-63
2023/12/02 06:04:13;;;;;;;42.63;17.93;;;;;;;-3.05;82.50;99451.72;5125936;27;20318;-63
2023/12/02 06:06:45;;;;;;;48.50;19.17;;;;;;;-3.03;82.74;99451.75;5101768;27;20191;-64
2023/12/02 06:09:13;;;;;;;45.43;18.83;;;;;;;-3.04;82.42;99450.06;5108838;27;20207;-63
2023/12/02 06:11:41;;;;;;;38.00;17.10;;;;;;;-3.01;82.60;99440.06;5109803;27;20645;-63
2023/12/02 06:14:09;;;;;;;40.73;18.23;;;;;;;-2.97;82.70;99447.78;5100610;28;20216;-64
2023/12/02 06:16:37;;;;;;;46.80;19.40;;;;;;;-2.94;82.61;99457.13;5113251;27;20278;-65
2023/12/02 06:19:06;;;;;;;47.60;19.37;;;;;;;-2.88;82.69;99456.44;5117268;27;20192;-62
2023/12/02 06:21:35;;;;;;;53.03;19.70;;;;;;;-2.89;82.61;99444.66;5113539;27;20196;-62
2023/12/02 06:24:04;;;;;;;48.33;18.87;;;;;;;-2.94;82.29;99447.03;5109482;27;20196;-62
2023/12/02 06:26:32;;;;;;;44.20;20.20;;;;;;;-2.94;82.38;99447.88;5118763;27;20199;-63
2023/12/02 06:28:59;;;;;;;48.50;19.60;;;;;;;-2.96;82.20;99457.03;5124809;27;20637;-63
2023/12/02 06:31:27;;;;;;;42.53;18.80;;;;;;;-2.97;82.69;99452.81;5109886;27;20228;-63
2023/12/02 06:33:55;;;;;;;47.40;20.70;;;;;;;-2.93;82.75;99454.63;5107105;28;20221;-62
2023/12/02 06:36:23;;;;;;;56.10;21.57;;;;;;;-2.95;82.62;99437.72;5117788;27;20207;-62
2023/12/02 06:38:52;;;;;;;53.37;21.50;;;;;;;-2.98;82.56;99438.50;5116484;27;20288;-63
2023/12/02 06:41:23;;;;;;;50.20;20.77;;;;;;;-3.02;82.81;99446.78;5116922;27;20196;-62
2023/12/02 06:43:51;;;;;;;45.97;20.57;;;;;;;-3.04;82.63;99450.06;5105727;27;20208;-61
2023/12/02 06:46:22;;;;;;;47.40;20.97;;;;;;;-3.00;82.81;99465.31;5103668;27;20200;-62
2023/12/02 06:48:50;;;;;;;41.77;18.93;;;;;;;-2.97;83.31;99472.97;5110142;27;20599;-62
2023/12/02 06:51:19;;;;;;;50.40;19.83;;;;;;;-2.94;82.76;99477.28;5105436;28;20208;-61
2023/12/02 06:53:46;;;;;;;42.60;19.07;;;;;;;-2.97;82.94;99472.13;5112358;27;20211;-60
2023/12/02 06:56:21;;;;;;;44.33;18.40;;;;;;;-2.97;83.04;99480.53;5108132;27;20211;-62
2023/12/02 06:58:49;;;;;;;47.80;18.93;;;;;;;-2.92;83.34;99481.53;5118708;27;20199;-61
2023/12/02 07:01:26;;;;;;;47.70;19.47;;;;;;;-2.90;83.09;99480.75;5108403;28;20192;-60
2023/12/02 07:03:54;;;;;;;46.40;18.77;;;;;;;-2.84;82.54;99484.31;5101808;28;20777;-60
2023/12/02 07:06:22;;;;;;;46.77;18.70;;;;;;;-2.80;82.38;99482.75;5112021;28;20296;-61
2023/12/02 07:08:51;;;;;;;46.43;18.97;;;;;;;-2.76;82.86;99482.91;5123281;28;20650;-62
2023/12/02 07:11:21;;;;;;;42.87;18.33;;;;;;;-2.77;82.89;99480.34;5105076;28;20209;-62
2023/12/02 07:13:49;;;;;;;42.43;17.60;;;;;;;-2.81;82.37;99488.59;5105412;28;20203;-61
2023/12/02 07:16:17;;;;;;;36.93;16.10;;;;;;;-2.90;82.54;99489.16;5104172;28;20694;-62
2023/12/02 07:18:45;;;;;;;44.37;16.60;;;;;;;-2.88;82.98;99490.06;5116019;28;20200;-61
2023/12/02 07:21:13;;;;;;;41.47;16.63;;;;;;;-2.85;83.14;99497.72;5111402;28;20346;-60
2023/12/02 07:23:41;;;;;;;39.53;16.17;;;;;;;-2.85;82.75;99494.34;5114967;28;20571;-62
2023/12/02 07:26:09;;;;;;;39.77;15.67;;;;;;;-2.83;83.15;99485.19;5107933;28;20303;-62
2023/12/02 07:28:38;;;;;;;42.47;17.17;;;;;;;-2.82;82.72;99485.22;5105918;28;20284;-60
2023/12/02 07:31:06;;;;;;;37.00;17.27;;;;;;;-2.84;82.83;99496.06;5109092;28;20195;-58
2023/12/02 07:33:34;;;;;;;39.47;16.10;;;;;;;-2.90;83.06;99495.88;5104324;28;20200;-62
2023/12/02 07:36:02;;;;;;;36.90;16.50;;;;;;;-2.89;83.22;99500.09;5117192;28;20216;-59
2023/12/02 07:38:30;;;;;;;40.47;15.50;;;;;;;-2.94;83.84;99492.41;5110852;28;20222;-62
2023/12/02 07:40:57;;;;;;;33.53;14.53;;;;;;;-2.92;84.15;99491.63;5095825;28;20227;-60
2023/12/02 07:43:25;;;;;;;36.53;16.27;;;;;;;-3.00;84.05;99482.97;5110612;28;20204;-60
2023/12/02 07:45:55;;;;;;;40.70;17.83;;;;;;;-2.97;84.42;99482.22;5111069;28;20669;-63
2023/12/02 07:48:23;;;;;;;37.13;15.77;;;;;;;-2.93;84.32;99474.78;5105098;28;20231;-62
2023/12/02 07:50:51;;;;;;;36.07;15.80;;;;;;;-2.86;85.08;99469.97;5090194;28;20263;-60
2023/12/02 07:53:19;;;;;;;49.57;17.13;;;;;;;-2.80;85.05;99466.00;5101085;28;20208;-59
2023/12/02 07:55:46;;;;;;;42.23;17.33;;;;;;;-2.74;83.89;99471.19;5112792;27;20565;-61
2023/12/02 07:58:14;;;;;;;47.13;20.00;;;;;;;-2.72;83.64;99463.72;5110568;28;20200;-60
2023/12/02 08:00:42;;;;;;;43.07;19.17;;;;;;;-2.67;84.15;99462.19;5107917;27;20235;-59
2023/12/02 08:03:11;;;;;;;53.87;20.30;;;;;;;-2.63;84.62;99463.97;5110869;27;20223;-60
2023/12/02 08:05:39;;;;;;;50.87;20.23;;;;;;;-2.56;84.18;99455.81;5111911;28;20245;-63
2023/12/02 08:08:10;;;;;;;55.53;20.80;;;;;;;-2.49;83.96;99462.75;5105166;28;20195;-61
2023/12/02 08:10:38;;;;;;;47.57;20.03;;;;;;;-2.44;83.51;99458.69;5108094;27;20191;-61
2023/12/02 08:13:06;;;;;;;45.73;19.67;;;;;;;-2.40;83.84;99461.31;5117828;27;20655;-62
2023/12/02 08:15:35;;;;;;;50.53;23.37;;;;;;;-2.39;83.61;99457.97;5114185;27;20742;-61
2023/12/02 08:18:04;;;;;;;53.60;22.50;;;;;;;-2.37;83.49;99461.41;5118502;27;20276;-61
2023/12/02 08:20:34;;;;;;;44.37;18.03;;;;;;;-2.44;83.14;99470.44;5106685;27;20205;-63
2023/12/02 08:23:01;;;;;;;46.57;18.67;;;;;;;-2.42;83.61;99470.53;5114097;27;20709;-61
2023/12/02 08:25:29;;;;;;;45.67;19.20;;;;;;;-2.38;83.39;99479.91;5106493;28;20204;-63
2023/12/02 08:27:58;;;;;;;45.57;18.70;;;;;;;-2.46;83.29;99488.06;5113789;27;20204;-62
2023/12/02 08:30:26;;;;;;;43.20;17.97;;;;;;;-2.46;83.48;99497.31;5120841;27;20608;-61
2023/12/02 08:32:54;;;;;;;43.73;18.57;;;;;;;-2.42;83.64;99488.19;5102978;27;20212;-62
2023/12/02 08:35:22;;;;;;;43.30;18.60;;;;;;;-2.32;84.11;99495.19;5119385;27;20216;-61
2023/12/02 08:37:51;;;;;;;49.93;19.17;;;;;;;-2.22;84.06;99490.47;5108544;28;20238;-63
2023/12/02 08:40:19;;;;;;;46.40;19.43;;;;;;;-2.09;83.63;99494.25;5106339;27;20246;-65
2023/12/02 08:42:47;;;;;;;48.27;20.80;;;;;;;-2.05;82.56;99491.00;5113489;27;20204;-63
2023/12/02 08:45:16;;;;;;;55.77;22.23;;;;;;;-2.08;82.25;99495.97;5112220;28;20719;-61
2023/12/02 08:47:44;;;;;;;47.93;19.73;;;;;;;-2.05;82.26;99506.16;5101981;27;20675;-63
2023/12/02 08:50:12;;;;;;;49.93;19.57;;;;;;;-1.95;82.83;99518.25;5112147;27;20564;-62
2023/12/02 08:52:40;;;;;;;50.83;20.77;;;;;;;-1.84;82.53;99525.25;5118999;27;20631;-62
2023/12/02 08:55:09;;;;;;;48.63;21.00;;;;;;;-1.76;81.97;99536.47;5110743;27;20216;-63
2023/12/02 08:57:41;;;;;;;45.03;20.23;;;;;;;-1.73;81.43;99531.47;5120186;27;20211;-63
2023/12/02 09:00:10;;;;;;;48.40;20.20;;;;;;;-1.68;81.45;99537.53;5107998;28;20703;-62
2023/12/02 09:02:38;;;;;;;46.63;20.13;;;;;;;-1.60;81.61;99538.59;5111246;28;20303;-62
2023/12/02 09:05:08;;;;;;;45.07;20.17;;;;;;;-1.60;80.87;99536.09;5115912;27;20282;-64
2023/12/02 09:07:36;;;;;;;46.63;19.93;;;;;;;-1.64;80.89;99534.28;5099095;27;20215;-61
2023/12/02 09:10:04;;;;;;;50.27;21.33;;;;;;;-1.64;81.47;99531.75;5109741;27;20216;-62
2023/12/02 09:12:34;;;;;;;51.20;21.93;;;;;;;-1.62;81.19;99525.09;5113460;28;20658;-64
2023/12/02 09:15:07;;;;;;;48.43;19.47;;;;;;;-1.56;81.40;99526.94;5112960;28;20212;-64
2023/12/02 09:18:07;;;;;;;51.70;21.47;;;;;;;-1.54;81.03;99525.31;5111373;28;20718;-63
2023/12/02 09:20:43;;;;;;;48.70;20.10;;;;;;;-1.56;80.83;99521.88;5112303;27;20200;-62
2023/12/02 09:23:11;;;;;;;43.63;19.20;;;;;;;-1.55;81.01;99518.53;5109031;27;20290;-63
2023/12/02 09:25:41;;;;;;;47.27;20.27;;;;;;;-1.46;81.35;99516.28;5114740;27;20196;-64
2023/12/02 09:28:18;;;;;;;57.50;21.63;;;;;;;-1.39;80.99;99509.72;5117485;27;20192;-62
2023/12/02 09:30:56;;;;;;;49.40;20.97;;;;;;;-1.42;79.96;99518.06;5115869;27;20204;-63
2023/12/02 09:33:37;;;;;;;49.57;19.83;;;;;;;-1.48;80.13;99516.22;5117736;27;20635;-65
2023/12/02 09:36:07;;;;;;;48.93;21.60;;;;;;;-1.52;79.87;99511.88;5113446;27;20299;-64
2023/12/02 09:38:35;;;;;;;52.90;22.47;;;;;;;-1.57;80.81;99503.34;5110948;27;20200;-62
2023/12/02 09:41:34;;;;;;;51.63;22.57;;;;;;;-1.51;80.46;99503.53;5115637;27;20527;-64
2023/12/02 09:44:14;;;;;;;49.03;22.50;;;;;;;-1.55;80.47;99491.59;5098883;27;20705;-65
2023/12/02 09:46:53;;;;;;;55.83;23.33;;;;;;;-1.57;80.30;99489.84;5115690;27;20272;-61
2023/12/02 09:49:45;;;;;;;54.70;22.07;;;;;;;-1.58;81.00;99491.53;5105190;27;20249;-63
2023/12/02 09:52:33;;;;;;;50.43;20.93;;;;;;;-1.58;80.82;99489.00;5115714;27;20219;-64
2023/12/02 09:55:10;;;;;;;52.87;22.20;;;;;;;-1.57;80.81;99482.28;5109095;27;20207;-64
2023/12/02 09:57:48;;;;;;;47.97;22.37;;;;;;;-1.55;80.85;99483.16;5115086;27;20243;-62
2023/12/02 10:00:40;;;;;;;52.87;22.27;;;;;;;-1.54;80.85;99477.31;5114766;27;20948;-63
2023/12/02 10:03:27;;;;;;;54.17;22.20;;;;;;;-1.46;81.28;99486.81;5113341;27;20718;-62
2023/12/02 10:06:20;;;;;;;54.67;22.50;;;;;;;-1.40;80.58;99496.25;5112378;27;20206;-64
2023/12/02 10:09:01;;;;;;;56.87;21.87;;;;;;;-1.31;80.38;99498.16;5116390;27;20268;-62
2023/12/02 10:11:43;;;;;;;54.13;22.40;;;;;;;-1.18;80.39;99499.31;5117557;27;20197;-63
2023/12/02 10:14:12;;;;;;;45.83;20.73;;;;;;;-1.12;79.27;99500.34;5105848;27;20286;-66
2023/12/02 10:16:44;;;;;;;47.20;21.13;;;;;;;-1.21;79.07;99510.22;5117514;27;20239;-63
2023/12/02 10:19:21;;;;;;;44.87;20.23;;;;;;;-1.21;79.20;99495.06;5105014;27;20282;-64
2023/12/02 10:21:54;;;;;;;49.40;19.90;;;;;;;-1.22;79.17;99493.31;5116000;27;20306;-65
2023/12/02 10:24:33;;;;;;;46.10;21.03;;;;;;;-1.36;78.46;99472.75;5116684;27;20211;-67
2023/12/02 10:27:06;;;;;;;49.17;20.20;;;;;;;-1.47;79.12;99466.56;5111562;27;20192;-62
2023/12/02 10:29:45;;;;;;;54.73;20.80;;;;;;;-1.47;79.73;99476.66;5123028;27;20199;-64
2023/12/02 10:32:26;;;;;;;47.00;21.30;;;;;;;-1.45;79.83;99475.03;5095231;27;20252;-65
2023/12/02 10:35:06;;;;;;;51.87;22.67;;;;;;;-1.40;79.98;99470.97;5107943;27;20222;-66
2023/12/02 10:37:41;;;;;;;52.67;22.27;;;;;;;-1.38;79.82;99456.69;5105175;27;20211;-66
2023/12/02 10:40:15;;;;;;;48.27;24.17;;;;;;;-1.38;79.57;99454.16;5112268;28;20276;-62
2023/12/02 10:42:52;;;;;;;55.67;23.93;;;;;;;-1.36;79.55;99449.13;5106442;28;20226;-65
2023/12/02 10:45:22;;;;;;;51.70;22.70;;;;;;;-1.34;79.51;99450.91;5104944;27;20634;-63
2023/12/02 10:47:53;;;;;;;59.43;23.67;;;;;;;-1.34;79.12;99450.03;5095541;28;20201;-64
2023/12/02 10:50:23;;;;;;;54.90;23.60;;;;;;;-1.34;79.03;99448.38;5101968;27;20296;-65
2023/12/02 10:52:58;;;;;;;51.43;22.87;;;;;;;-1.33;78.80;99459.34;5115947;27;20245;-65
2023/12/02 10:55:31;;;;;;;53.73;22.23;;;;;;;-1.29;79.05;99456.06;5109367;28;20210;-64
2023/12/02 10:58:03;;;;;;;47.30;21.63;;;;;;;-1.25;78.89;99463.78;5105728;28;20212;-62
2023/12/02 11:00:35;;;;;;;53.73;21.93;;;;;;;-1.28;78.50;99448.53;5101616;28;20197;-64
2023/12/02 11:03:07;;;;;;;59.07;22.60;;;;;;;-1.25;79.39;99432.63;5103027;28;20195;-61
2023/12/02 11:05:41;;;;;;;45.13;22.00;;;;;;;-1.24;78.97;99460.44;5099606;28;20193;-63
2023/12/02 11:08:16;;;;;;;49.70;22.67;;;;;;;-1.23;78.90;99479.84;5115205;27;20191;-63
2023/12/02 11:10:48;;;;;;;49.47;22.13;;;;;;;-1.16;79.04;99495.16;5113645;28;20191;-63
2023/12/02 11:13:19;;;;;;;48.70;21.67;;;;;;;-1.11;78.80;99499.50;5112157;27;20211;-63
2023/12/02 11:16:19;;;;;;;43.00;21.23;;;;;;;-1.01;78.82;99511.59;5113646;28;20272;-65
2023/12/02 11:19:07;;;;;;;49.70;20.97;;;;;;;-1.02;78.08;99509.88;5110998;28;20211;-65
2023/12/02 11:21:47;;;;;;;48.47;23.37;;;;;;;-1.13;78.32;99493.59;5125827;28;20678;-63
2023/12/02 11:24:25;;;;;;;46.00;22.13;;;;;;;-1.24;79.09;99493.28;5105319;28;20205;-65
2023/12/02 11:27:05;;;;;;;45.57;20.93;;;;;;;-1.26;79.36;99492.38;5103611;28;20199;-64
2023/12/02 11:29:43;;;;;;;51.97;22.77;;;;;;;-1.29;79.36;99489.81;5099874;28;20215;-63